Ersov, Russia
Current Conditions -  °F | °C
As of 10:30 AM on Saturday 25 Oct 2014 (Local Time) from UWSS Reporting Station
Broken Clouds Broken Clouds  
Wind Chill:   Ceiling: 3100
Heat Index: 18°   Visibility: 6mi
Dew Point: 10°   Wind: 16mph
Humidity: 73%   Direction: 360°N
Pressure: 30.42"   Gusts: 22mph
Location:  51.37°N, 48.3°E
Report Text: UWSS 250730Z 36007G10MPS 9999 BKN031CB M08/M12 Q1030 300///60NOSIG RMK QFE759
Loading
Personal Weather Stations






























Interactive Weather Map
Tropical Storm Tracking
New forecast layout! Learn more

10-Day Weather Forecast

Advertisements
Track Severe Weather on mobile